createdAt,value
2022-12-08T00:05:14.951Z,1.6
2022-12-08T00:10:49.879Z,1.6
2022-12-08T00:16:13.331Z,1.5
2022-12-08T00:21:51.292Z,1.4
2022-12-08T00:27:29.259Z,1.4
2022-12-08T00:33:14.474Z,1.3
2022-12-08T00:49:11.408Z,1.2
2022-12-08T00:54:34.415Z,1.1
2022-12-08T01:00:11.362Z,1.1
2022-12-08T01:05:49.286Z,1.1
2022-12-08T01:11:27.550Z,1.1
2022-12-08T01:17:05.896Z,1.1
2022-12-08T01:22:43.981Z,1.1
2022-12-08T01:28:21.925Z,1.1
2022-12-08T01:33:44.984Z,1.1
2022-12-08T01:39:07.465Z,1.1
2022-12-08T01:44:45.034Z,1.1
2022-12-08T01:50:08.026Z,1
2022-12-08T01:55:30.293Z,1
2022-12-08T02:01:07.887Z,0.9
2022-12-08T02:06:46.626Z,0.9
2022-12-08T02:12:28.990Z,0.8
2022-12-08T02:18:12.924Z,0.8
2022-12-08T02:24:21.603Z,0.8
2022-12-08T02:29:58.958Z,0.7
2022-12-08T02:35:37.152Z,0.6
2022-12-08T02:41:15.017Z,0.6
2022-12-08T02:46:37.209Z,0.5
2022-12-08T02:51:59.115Z,0.4
2022-12-08T02:57:21.123Z,0.4
2022-12-08T03:03:00.483Z,0.3
2022-12-08T03:08:37.908Z,0.2
2022-12-08T03:14:16.212Z,0.1
2022-12-08T03:19:38.436Z,0.1
2022-12-08T03:25:00.243Z,-0.1
2022-12-08T03:30:37.493Z,-0.1
2022-12-08T03:36:15.363Z,-0.2
2022-12-08T03:41:53.361Z,-0.3
2022-12-08T03:47:31.875Z,-0.3
2022-12-08T03:53:09.616Z,-0.4
2022-12-08T03:58:37.156Z,-0.4
2022-12-08T04:04:15.816Z,-0.5
2022-12-08T04:09:54.164Z,-0.5
2022-12-08T04:15:31.248Z,-0.6
2022-12-08T04:20:53.950Z,-0.6
2022-12-08T04:26:36.256Z,-0.6
2022-12-08T04:31:58.705Z,-0.6
2022-12-08T04:37:21.320Z,-0.6
2022-12-08T04:42:59.170Z,-0.6
2022-12-08T04:48:43.538Z,-0.6
2022-12-08T04:54:24.870Z,-0.6
2022-12-08T04:59:46.850Z,-0.6
2022-12-08T05:05:29.576Z,-0.5
2022-12-08T05:11:08.129Z,-0.5
2022-12-08T05:16:52.441Z,-0.5
2022-12-08T05:22:29.467Z,-0.5
2022-12-08T05:28:42.587Z,-0.5
2022-12-08T05:34:06.406Z,-0.5
2022-12-08T05:39:13.089Z,-0.5
2022-12-08T05:44:57.600Z,-0.6
2022-12-08T05:50:40.652Z,-0.6
2022-12-08T05:56:03.001Z,-0.6
2022-12-08T06:01:48.437Z,-0.6
2022-12-08T06:07:32.340Z,-0.6
2022-12-08T06:13:10.574Z,-0.6
2022-12-08T06:18:33.479Z,-0.5
2022-12-08T06:24:11.314Z,-0.4
2022-12-08T06:29:53.003Z,-0.2
2022-12-08T06:35:35.965Z,0.2
2022-12-08T06:41:18.380Z,0.8
2022-12-08T06:46:56.631Z,1.6
2022-12-08T06:52:36.563Z,2.9
2022-12-08T06:58:53.093Z,4.6
2022-12-08T07:04:31.585Z,5.8
2022-12-08T07:10:13.822Z,6.5
2022-12-08T07:15:53.733Z,7.1
2022-12-08T07:21:36.669Z,7.9
2022-12-08T07:27:20.589Z,9
2022-12-08T07:33:05.061Z,10.3
2022-12-08T07:38:44.964Z,11.9
2022-12-08T07:44:23.258Z,38.9
2022-12-08T07:50:03.849Z,37.4
2022-12-08T07:55:26.894Z,40.6
2022-12-08T08:01:04.796Z,42
2022-12-08T08:07:10.810Z,42.9
2022-12-08T08:13:27.207Z,44.6
2022-12-08T08:19:13.021Z,46
2022-12-08T08:25:25.451Z,43.8
2022-12-08T08:31:03.552Z,42.2
2022-12-08T08:36:41.996Z,41.9
2022-12-08T08:42:20.495Z,42
2022-12-08T08:48:02.544Z,41.9
2022-12-08T08:53:30.539Z,41.6
2022-12-08T08:59:11.511Z,41.5
2022-12-08T09:04:48.985Z,41.9
2022-12-08T09:10:27.314Z,41.4
2022-12-08T09:16:06.070Z,40.9
2022-12-08T09:21:46.980Z,40.6
2022-12-08T09:27:29.939Z,40.4
2022-12-08T09:33:15.249Z,40.3
2022-12-08T09:38:53.248Z,41
2022-12-08T09:44:22.263Z,42.4
2022-12-08T09:50:07.665Z,42.7
2022-12-08T09:55:52.880Z,43
2022-12-08T10:01:37.767Z,43.1
2022-12-08T10:07:16.900Z,43.4
2022-12-08T10:12:58.189Z,44.3
2022-12-08T10:18:44.930Z,45.2
2022-12-08T10:24:28.961Z,46.3
2022-12-08T10:29:55.944Z,46.6
2022-12-08T10:35:34.752Z,46.8
2022-12-08T10:41:17.380Z,47.4
2022-12-08T10:46:54.534Z,48.4
2022-12-08T10:52:34.911Z,49.6
2022-12-08T10:58:20.355Z,50.3
2022-12-08T11:04:14.779Z,51.1
2022-12-08T11:09:37.429Z,51.9
2022-12-08T11:15:00.991Z,52.6
2022-12-08T11:20:39.456Z,52.5
2022-12-08T11:26:21.644Z,52.8
2022-12-08T11:31:44.470Z,53.7
2022-12-08T11:37:22.354Z,53.1
2022-12-08T11:43:02.095Z,52.2
2022-12-08T11:54:16.392Z,52.1
2022-12-08T12:05:33.645Z,51.7
2022-12-08T12:11:58.675Z,51.1
2022-12-08T12:17:43.617Z,50.5
2022-12-08T12:23:21.748Z,49.9
2022-12-08T12:29:08.971Z,49.6
2022-12-08T12:34:47.583Z,49.4
2022-12-08T12:40:31.518Z,49
2022-12-08T12:46:12.869Z,48.5
2022-12-08T12:51:54.891Z,48
2022-12-08T12:57:18.127Z,47.6
2022-12-08T13:03:04.135Z,47
2022-12-08T13:08:48.118Z,46.4
2022-12-08T13:14:26.193Z,45.9
2022-12-08T13:20:16.689Z,45.5
2022-12-08T13:25:55.305Z,45.3
2022-12-08T13:31:33.653Z,44.8
2022-12-08T13:37:54.232Z,44.1
2022-12-08T13:43:17.517Z,42.4
2022-12-08T13:58:23.995Z,35.6
2022-12-08T14:04:04.581Z,33.6
2022-12-08T14:11:45.696Z,30.9
2022-12-08T14:17:57.588Z,28.9
2022-12-08T14:24:11.346Z,27.3
2022-12-08T14:29:39.397Z,25.9
2022-12-08T14:35:07.835Z,24.6
2022-12-08T14:40:17.370Z,23.4
2022-12-08T14:45:59.528Z,22.3
2022-12-08T14:51:38.207Z,21.2
2022-12-08T14:57:16.216Z,20.2
2022-12-08T15:02:55.493Z,19.2
2022-12-08T15:08:39.464Z,18.3
2022-12-08T15:14:17.428Z,17.4
2022-12-08T15:19:40.693Z,16.7
2022-12-08T15:25:06.827Z,16
2022-12-08T15:36:33.186Z,14.8
2022-12-08T15:41:39.450Z,14.3
2022-12-08T15:46:54.265Z,13.8
2022-12-08T16:00:19.194Z,12.7
2022-12-08T16:10:24.294Z,11.9
2022-12-08T16:19:26.203Z,11.3
2022-12-08T16:29:49.616Z,10.8
2022-12-08T16:35:00.584Z,10.5
2022-12-08T16:40:40.339Z,10.2
2022-12-08T16:46:23.247Z,9.9
2022-12-08T16:51:46.240Z,9.6
2022-12-08T16:57:27.737Z,9.4
2022-12-08T17:03:10.612Z,9.1
2022-12-08T17:09:21.775Z,8.8
2022-12-08T17:15:11.875Z,8.6
2022-12-08T17:20:50.090Z,8.4
2022-12-08T17:26:28.264Z,8.2
2022-12-08T17:32:25.260Z,8.1
2022-12-08T17:38:03.431Z,7.9
2022-12-08T17:43:36.561Z,7.7
2022-12-08T17:49:17.782Z,7.6
2022-12-08T17:54:46.928Z,7.4
2022-12-08T18:05:32.255Z,7.2
2022-12-08T18:11:15.353Z,7.1
2022-12-08T18:16:39.942Z,7
2022-12-08T18:22:18.392Z,6.9
2022-12-08T18:27:59.639Z,6.8
2022-12-08T18:33:38.220Z,6.7
2022-12-08T18:39:16.426Z,6.6
2022-12-08T18:44:39.155Z,6.6
2022-12-08T18:50:07.134Z,6.5
2022-12-08T18:56:25.574Z,6.4
2022-12-08T19:02:11.173Z,6.4
2022-12-08T19:13:34.552Z,6.3
2022-12-08T19:19:16.496Z,6.3
2022-12-08T19:24:39.593Z,6.3
2022-12-08T19:30:01.800Z,6.3
2022-12-08T19:35:40.246Z,6.2
2022-12-08T19:41:18.751Z,6.1
2022-12-08T19:46:41.502Z,6.1
2022-12-08T19:52:04.266Z,6.1
2022-12-08T19:57:13.085Z,6.1
2022-12-08T20:02:35.855Z,6.1
2022-12-08T20:07:59.501Z,6.1
2022-12-08T20:13:38.895Z,6
2022-12-08T20:19:01.965Z,6
2022-12-08T20:24:41.380Z,5.9
2022-12-08T20:30:22.195Z,5.9
2022-12-08T20:35:45.098Z,5.9
2022-12-08T20:41:23.464Z,5.9
2022-12-08T20:47:06.211Z,5.8
2022-12-08T20:52:46.351Z,5.8
2022-12-08T20:58:32.739Z,5.7
2022-12-08T21:04:20.138Z,5.6
2022-12-08T21:09:45.003Z,5.6
2022-12-08T21:15:32.683Z,5.5
2022-12-08T21:26:39.739Z,5.4
2022-12-08T21:37:36.394Z,5.3
2022-12-08T21:43:18.097Z,5.3
2022-12-08T21:48:49.761Z,5.2
2022-12-08T21:54:18.552Z,5.1
2022-12-08T21:59:58.592Z,5.1
2022-12-08T22:05:47.134Z,5.1
2022-12-08T22:10:57.315Z,5.1
2022-12-08T22:16:38.104Z,5.1
2022-12-08T22:22:25.704Z,5
2022-12-08T22:28:04.830Z,4.9
2022-12-08T22:33:33.506Z,4.9
2022-12-08T22:39:03.343Z,4.8
2022-12-08T22:44:43.216Z,4.8
2022-12-08T22:50:27.934Z,4.8
2022-12-08T22:56:06.886Z,4.6
2022-12-08T23:01:46.644Z,4.6
2022-12-08T23:07:29.603Z,4.5
2022-12-08T23:12:55.991Z,4.5
2022-12-08T23:18:39.376Z,4.4
2022-12-08T23:24:19.692Z,4.3
2022-12-08T23:29:58.614Z,4.2
2022-12-08T23:35:39.433Z,4.1
2022-12-08T23:46:28.858Z,3.9
2022-12-08T23:52:10.362Z,3.9
2022-12-08T23:57:41.512Z,3.8
